Time;durP1;ratioP1;P1;durP2;ratioP2;P2;SDS_P1;SDS_P2;PMS_P1;PMS_P2;Temp;Humidity;BMP_temperature;BMP_pressure;BME280_temperature;BME280_humidity;BME280_pressure;Samples;Min_cycle;Max_cycle;Signal;HPM_P1;HPM_P2
2023/01/04 00:01:29;;;;;;;10.13;2.05;;;;;;;;;;5058452;28;20055;-68
2023/01/04 00:03:56;;;;;;;4.78;1.60;;;;;;;;;;5061642;28;20109;-67
2023/01/04 00:06:22;;;;;;;9.27;2.42;;;;;;;;;;5059911;28;20384;-68
2023/01/04 00:08:49;;;;;;;5.90;1.90;;;;;;;;;;5038002;28;20041;-68
2023/01/04 00:11:17;;;;;;;9.40;2.13;;;;;;;;;;5027412;28;20044;-68
2023/01/04 00:13:44;;;;;;;8.80;1.98;;;;;;;;;;5025920;28;20111;-69
2023/01/04 00:16:12;;;;;;;7.38;1.90;;;;;;;;;;5026715;28;20132;-68
2023/01/04 00:18:39;;;;;;;10.25;1.75;;;;;;;;;;5027790;28;20065;-67
2023/01/04 00:21:13;;;;;;;9.73;2.17;;;;;;;;;;5028102;28;20838;-67
2023/01/04 00:23:40;;;;;;;9.27;1.73;;;;;;;;;;5025550;28;20044;-66
2023/01/04 00:26:08;;;;;;;7.25;1.98;;;;;;;;;;5026552;28;20473;-67
2023/01/04 00:28:34;;;;;;;7.50;1.83;;;;;;;;;;5026754;28;20032;-67
2023/01/04 00:31:05;;;;;;;4.50;1.77;;;;;;;;;;5025825;28;20042;-67
2023/01/04 00:33:32;;;;;;;12.65;2.22;;;;;;;;;;5026116;28;20102;-66
2023/01/04 00:36:05;;;;;;;8.75;2.35;;;;;;;;;;5026295;28;20045;-67
2023/01/04 00:38:32;;;;;;;9.98;1.77;;;;;;;;;;5025737;28;20046;-67
2023/01/04 00:40:59;;;;;;;7.50;2.47;;;;;;;;;;5026263;28;20587;-66
2023/01/04 00:43:26;;;;;;;17.52;2.80;;;;;;;;;;5025005;28;20079;-68
2023/01/04 00:45:53;;;;;;;7.28;2.15;;;;;;;;;;5028423;28;20508;-69
2023/01/04 00:48:20;;;;;;;10.27;1.92;;;;;;;;;;5026268;28;20041;-67
2023/01/04 00:50:48;;;;;;;7.70;2.67;;;;;;;;;;5026447;28;20072;-67
2023/01/04 00:53:16;;;;;;;5.88;1.65;;;;;;;;;;5025447;28;20048;-67
2023/01/04 00:55:42;;;;;;;19.23;2.83;;;;;;;;;;5024161;28;20041;-68
2023/01/04 00:58:09;;;;;;;12.95;2.05;;;;;;;;;;5026328;28;20543;-69
2023/01/04 01:00:36;;;;;;;11.23;2.35;;;;;;;;;;5023692;28;20440;-66
2023/01/04 01:03:03;;;;;;;12.55;2.10;;;;;;;;;;5027805;28;20119;-67
2023/01/04 01:05:30;;;;;;;9.70;2.45;;;;;;;;;;5027339;28;20061;-67
2023/01/04 01:07:57;;;;;;;7.25;2.17;;;;;;;;;;5026208;28;20117;-67
2023/01/04 01:10:23;;;;;;;11.45;1.90;;;;;;;;;;5025963;28;20034;-66
2023/01/04 01:12:50;;;;;;;7.22;2.17;;;;;;;;;;5027368;28;20044;-66
2023/01/04 01:15:16;;;;;;;8.77;1.65;;;;;;;;;;5027300;28;20419;-66
2023/01/04 01:17:43;;;;;;;12.65;1.80;;;;;;;;;;5025770;28;20526;-68
2023/01/04 01:20:10;;;;;;;11.82;1.40;;;;;;;;;;5031604;28;20432;-65
2023/01/04 01:22:36;;;;;;;9.70;1.63;;;;;;;;;;5029335;28;20045;-66
2023/01/04 01:25:03;;;;;;;8.27;1.73;;;;;;;;;;5028197;28;20042;-67
2023/01/04 01:27:30;;;;;;;5.47;1.40;;;;;;;;;;5026296;28;20037;-67
2023/01/04 01:29:56;;;;;;;6.28;1.30;;;;;;;;;;5027537;28;20067;-67
2023/01/04 01:32:23;;;;;;;9.60;2.33;;;;;;;;;;5027479;28;20144;-67
2023/01/04 01:34:50;;;;;;;6.32;1.50;;;;;;;;;;5026921;28;20152;-66
2023/01/04 01:37:16;;;;;;;7.82;1.92;;;;;;;;;;5026728;28;20509;-69
2023/01/04 01:39:43;;;;;;;4.65;1.50;;;;;;;;;;5016277;28;20176;-68
2023/01/04 01:42:18;;;;;;;8.70;1.95;;;;;;;;;;5042463;28;20036;-69
2023/01/04 01:44:45;;;;;;;3.97;0.93;;;;;;;;;;5026227;28;20461;-66
2023/01/04 01:47:16;;;;;;;4.57;1.40;;;;;;;;;;5025195;28;20038;-66
2023/01/04 01:49:44;;;;;;;6.35;1.42;;;;;;;;;;5069058;28;20044;-66
2023/01/04 01:52:14;;;;;;;8.90;2.00;;;;;;;;;;5062202;28;20050;-67
2023/01/04 01:54:46;;;;;;;12.48;2.08;;;;;;;;;;5048574;28;20781;-67
2023/01/04 01:57:15;;;;;;;7.25;1.73;;;;;;;;;;5080210;28;20044;-68
2023/01/04 01:59:43;;;;;;;4.20;1.38;;;;;;;;;;5063212;28;20047;-67
2023/01/04 02:02:10;;;;;;;10.05;1.85;;;;;;;;;;5063392;28;20032;-66
2023/01/04 02:04:38;;;;;;;5.05;1.48;;;;;;;;;;5040106;28;20047;-68
2023/01/04 02:07:05;;;;;;;12.15;1.67;;;;;;;;;;5037655;28;20476;-67
2023/01/04 02:09:33;;;;;;;10.18;1.58;;;;;;;;;;5026657;28;20070;-67
2023/01/04 02:11:59;;;;;;;3.10;1.00;;;;;;;;;;5039726;28;20040;-67
2023/01/04 02:14:26;;;;;;;5.38;1.35;;;;;;;;;;5034941;28;20055;-67
2023/01/04 02:17:11;;;;;;;4.60;1.20;;;;;;;;;;5038293;28;20797;-66
2023/01/04 02:19:59;;;;;;;3.95;1.40;;;;;;;;;;5036239;28;20453;-66
2023/01/04 02:22:44;;;;;;;7.18;1.50;;;;;;;;;;5001879;28;20041;-66
2023/01/04 02:25:16;;;;;;;4.00;1.05;;;;;;;;;;5000755;28;20076;-64
2023/01/04 02:28:01;;;;;;;2.33;0.85;;;;;;;;;;5003126;28;20133;-69
2023/01/04 02:30:38;;;;;;;8.50;1.52;;;;;;;;;;5002020;28;20049;-66
2023/01/04 02:33:07;;;;;;;2.50;0.90;;;;;;;;;;4986986;28;20181;-69
2023/01/04 02:35:43;;;;;;;8.73;1.73;;;;;;;;;;5001739;28;20144;-68
2023/01/04 02:38:14;;;;;;;3.47;1.20;;;;;;;;;;5001608;28;20148;-69
2023/01/04 02:40:41;;;;;;;7.25;1.50;;;;;;;;;;5001612;28;20254;-68
2023/01/04 02:46:19;;;;;;;11.15;1.55;;;;;;;;;;5023764;28;20205;-66
2023/01/04 02:51:35;;;;;;;5.50;1.27;;;;;;;;;;5023497;28;20044;-69
2023/01/04 02:54:07;;;;;;;9.80;1.38;;;;;;;;;;5038758;28;20044;-72
2023/01/04 02:56:43;;;;;;;13.98;1.77;;;;;;;;;;5024895;28;20029;-68
2023/01/04 02:59:28;;;;;;;5.50;1.42;;;;;;;;;;5024523;28;20060;-70
2023/01/04 03:07:47;;;;;;;7.80;1.10;;;;;;;;;;5019280;28;20430;-69
2023/01/04 03:10:13;;;;;;;3.83;1.27;;;;;;;;;;5022866;28;20129;-69
2023/01/04 03:12:44;;;;;;;3.25;1.27;;;;;;;;;;5042432;28;20752;-69
2023/01/04 03:15:16;;;;;;;3.70;1.30;;;;;;;;;;5046595;28;20040;-69
2023/01/04 03:17:52;;;;;;;4.60;1.57;;;;;;;;;;5049270;28;20041;-68
2023/01/04 03:20:20;;;;;;;5.40;1.70;;;;;;;;;;5047514;28;20040;-70
2023/01/04 03:36:49;;;;;;;3.53;1.40;;;;;;;;;;5028057;28;20040;-69
2023/01/04 03:48:34;;;;;;;4.22;1.00;;;;;;;;;;5049723;28;20044;-69
2023/01/04 03:51:00;;;;;;;3.72;1.50;;;;;;;;;;5034709;28;20037;-69
2023/01/04 03:53:28;;;;;;;7.50;1.40;;;;;;;;;;5028384;28;20382;-69
2023/01/04 03:55:56;;;;;;;7.75;1.60;;;;;;;;;;5028719;28;20037;-68
2023/01/04 03:58:24;;;;;;;7.95;1.33;;;;;;;;;;5025776;28;20041;-69
2023/01/04 04:00:51;;;;;;;9.90;1.50;;;;;;;;;;5026641;28;20042;-68
2023/01/04 04:03:18;;;;;;;6.45;1.05;;;;;;;;;;5027868;28;20049;-69
2023/01/04 04:08:30;;;;;;;2.92;1.20;;;;;;;;;;5026904;28;20086;-68
2023/01/04 04:11:28;;;;;;;6.53;1.30;;;;;;;;;;5025617;28;20147;-68
2023/01/04 04:13:48;;;;;;;5.25;1.30;;;;;;;;;;5023742;28;20034;-68
2023/01/04 04:16:15;;;;;;;3.80;1.20;;;;;;;;;;5021383;28;20033;-70
2023/01/04 04:18:41;;;;;;;3.05;1.08;;;;;;;;;;5027949;28;20047;-69
2023/01/04 04:21:08;;;;;;;6.53;1.02;;;;;;;;;;5042554;28;20083;-69
2023/01/04 04:23:35;;;;;;;4.13;1.40;;;;;;;;;;5046383;28;20734;-69
2023/01/04 04:26:01;;;;;;;3.80;1.17;;;;;;;;;;5046681;28;20053;-69
2023/01/04 04:28:28;;;;;;;8.57;1.30;;;;;;;;;;5059832;28;20029;-68
2023/01/04 04:30:55;;;;;;;6.00;1.27;;;;;;;;;;5047261;28;20032;-67
2023/01/04 04:33:21;;;;;;;3.58;1.02;;;;;;;;;;5047474;28;21010;-66
2023/01/04 04:35:52;;;;;;;3.00;0.98;;;;;;;;;;5049765;28;20754;-69
2023/01/04 04:38:18;;;;;;;8.13;1.33;;;;;;;;;;5045340;28;20072;-69
2023/01/04 04:43:31;;;;;;;4.63;1.63;;;;;;;;;;5045215;28;20052;-66
2023/01/04 04:45:57;;;;;;;4.22;1.45;;;;;;;;;;5047424;28;20115;-67
2023/01/04 04:48:24;;;;;;;8.10;1.50;;;;;;;;;;5045336;28;20033;-67
2023/01/04 04:50:50;;;;;;;10.27;1.75;;;;;;;;;;5044931;28;20469;-68
2023/01/04 04:53:17;;;;;;;3.60;1.13;;;;;;;;;;5049402;28;20041;-66
2023/01/04 04:55:44;;;;;;;3.45;1.33;;;;;;;;;;5044870;28;20803;-66
2023/01/04 04:58:10;;;;;;;3.17;1.05;;;;;;;;;;5046187;28;20037;-67
2023/01/04 05:00:37;;;;;;;3.88;1.10;;;;;;;;;;5045612;28;20477;-65
2023/01/04 05:03:04;;;;;;;3.92;1.20;;;;;;;;;;5047131;28;20045;-67
2023/01/04 05:05:31;;;;;;;2.05;0.85;;;;;;;;;;5045644;28;20039;-66
2023/01/04 05:07:57;;;;;;;2.15;0.80;;;;;;;;;;5044603;28;20041;-66
2023/01/04 05:10:24;;;;;;;3.08;1.10;;;;;;;;;;5045005;28;20818;-67
2023/01/04 05:13:00;;;;;;;4.88;1.42;;;;;;;;;;5046780;28;20044;-69
2023/01/04 05:15:28;;;;;;;1.85;0.77;;;;;;;;;;5045346;28;20044;-69
2023/01/04 05:17:56;;;;;;;2.47;0.82;;;;;;;;;;5046236;28;20111;-69
2023/01/04 05:20:23;;;;;;;2.80;1.05;;;;;;;;;;5046573;28;20078;-69
2023/01/04 05:22:49;;;;;;;3.00;1.05;;;;;;;;;;5045948;28;20047;-68
2023/01/04 05:25:16;;;;;;;2.67;1.00;;;;;;;;;;5043919;28;20856;-68
2023/01/04 05:27:43;;;;;;;1.90;0.70;;;;;;;;;;5045942;28;20197;-68
2023/01/04 05:32:56;;;;;;;5.07;1.15;;;;;;;;;;5032035;28;20134;-68
2023/01/04 05:35:23;;;;;;;6.03;0.90;;;;;;;;;;5026173;28;20048;-70
2023/01/04 05:37:50;;;;;;;3.38;1.00;;;;;;;;;;5044914;28;20038;-69
2023/01/04 05:40:16;;;;;;;1.90;0.70;;;;;;;;;;5028553;28;20029;-69
2023/01/04 05:42:43;;;;;;;2.20;0.80;;;;;;;;;;5028191;28;20426;-71
2023/01/04 05:45:10;;;;;;;12.75;1.13;;;;;;;;;;5038830;28;20141;-67
2023/01/04 05:47:37;;;;;;;2.65;0.90;;;;;;;;;;5037839;28;20041;-68
2023/01/04 05:50:04;;;;;;;3.00;1.02;;;;;;;;;;5029840;28;20048;-68
2023/01/04 05:52:31;;;;;;;4.28;1.10;;;;;;;;;;5024834;28;20049;-66
2023/01/04 05:54:57;;;;;;;2.97;0.98;;;;;;;;;;5021300;28;20054;-67
2023/01/04 05:57:24;;;;;;;4.38;1.05;;;;;;;;;;5031887;28;20044;-67
2023/01/04 05:59:50;;;;;;;4.25;1.10;;;;;;;;;;5044768;28;20136;-67
2023/01/04 06:02:22;;;;;;;3.95;1.13;;;;;;;;;;5046727;28;20044;-68
2023/01/04 06:04:48;;;;;;;3.65;1.20;;;;;;;;;;5043450;28;20040;-68
2023/01/04 06:07:15;;;;;;;2.50;0.90;;;;;;;;;;5045217;28;20041;-68
2023/01/04 06:09:42;;;;;;;3.05;1.20;;;;;;;;;;5042099;28;20454;-68
2023/01/04 06:12:10;;;;;;;5.20;1.45;;;;;;;;;;5046201;28;20048;-67
2023/01/04 06:14:36;;;;;;;3.33;1.20;;;;;;;;;;5045038;28;20032;-68
2023/01/04 06:17:03;;;;;;;2.40;0.80;;;;;;;;;;5045137;28;20045;-68
2023/01/04 06:19:30;;;;;;;3.28;1.08;;;;;;;;;;5042138;28;20078;-67
2023/01/04 06:21:56;;;;;;;2.60;0.95;;;;;;;;;;5045437;28;20069;-69
2023/01/04 06:24:23;;;;;;;3.42;1.30;;;;;;;;;;5059665;28;22315;-68
2023/01/04 06:26:50;;;;;;;3.85;1.00;;;;;;;;;;5045638;28;20394;-68
2023/01/04 06:29:16;;;;;;;3.00;1.13;;;;;;;;;;5044906;28;20097;-68
2023/01/04 06:31:43;;;;;;;5.57;1.08;;;;;;;;;;5045135;28;20148;-69
2023/01/04 06:34:13;;;;;;;6.72;1.20;;;;;;;;;;5053314;28;20052;-68
2023/01/04 06:36:40;;;;;;;8.75;1.10;;;;;;;;;;5022370;28;20494;-69
2023/01/04 06:39:08;;;;;;;3.03;0.95;;;;;;;;;;5036668;28;20687;-69
2023/01/04 06:41:35;;;;;;;3.70;1.15;;;;;;;;;;5040175;28;20132;-68
2023/01/04 06:44:01;;;;;;;7.95;1.13;;;;;;;;;;5034616;28;20053;-69
2023/01/04 06:46:28;;;;;;;3.38;0.88;;;;;;;;;;5045854;28;20045;-68
2023/01/04 06:48:55;;;;;;;2.25;0.80;;;;;;;;;;5046177;28;20417;-68
2023/01/04 06:51:21;;;;;;;4.95;1.10;;;;;;;;;;5047447;28;20056;-68
2023/01/04 06:53:48;;;;;;;3.45;1.00;;;;;;;;;;5048641;28;20378;-69
2023/01/04 06:56:15;;;;;;;2.42;0.90;;;;;;;;;;5048511;28;20037;-69
2023/01/04 06:58:42;;;;;;;5.70;1.05;;;;;;;;;;5045604;28;20327;-69
2023/01/04 07:01:09;;;;;;;1.77;0.63;;;;;;;;;;5048099;28;20044;-69
2023/01/04 07:03:35;;;;;;;3.35;1.02;;;;;;;;;;5047825;28;20109;-69
2023/01/04 07:06:06;;;;;;;2.22;0.77;;;;;;;;;;5049462;28;20524;-69
2023/01/04 07:08:33;;;;;;;1.90;0.50;;;;;;;;;;5047173;28;20425;-69
2023/01/04 07:11:00;;;;;;;1.08;0.50;;;;;;;;;;5049506;28;20040;-70
2023/01/04 07:13:27;;;;;;;2.03;0.82;;;;;;;;;;5042678;28;20098;-70
2023/01/04 07:15:54;;;;;;;5.43;0.95;;;;;;;;;;5045267;28;20068;-71
2023/01/04 07:18:21;;;;;;;2.60;0.75;;;;;;;;;;5038162;28;20040;-71
2023/01/04 07:20:48;;;;;;;2.58;0.68;;;;;;;;;;5049575;28;20048;-70
2023/01/04 07:23:14;;;;;;;2.70;0.90;;;;;;;;;;5047109;28;20037;-69
2023/01/04 07:25:41;;;;;;;2.90;0.80;;;;;;;;;;5049121;28;20031;-69
2023/01/04 07:31:12;;;;;;;9.00;1.13;;;;;;;;;;5043937;28;20091;-69
2023/01/04 07:33:39;;;;;;;3.03;1.00;;;;;;;;;;5045233;28;20058;-69
2023/01/04 07:36:06;;;;;;;5.57;0.95;;;;;;;;;;5045023;28;20042;-70
2023/01/04 07:38:34;;;;;;;2.67;0.93;;;;;;;;;;5044181;28;20100;-69
2023/01/04 07:41:00;;;;;;;4.13;1.02;;;;;;;;;;5045942;28;20709;-68
2023/01/04 07:43:27;;;;;;;2.40;0.82;;;;;;;;;;5044849;28;20058;-69
2023/01/04 07:45:54;;;;;;;2.15;0.80;;;;;;;;;;5027677;28;20115;-67
2023/01/04 07:48:20;;;;;;;4.30;1.00;;;;;;;;;;5041999;28;20038;-69
2023/01/04 07:50:47;;;;;;;2.03;0.73;;;;;;;;;;5004704;28;20113;-69
2023/01/04 07:53:14;;;;;;;2.80;1.00;;;;;;;;;;5005367;28;20414;-67
2023/01/04 07:55:40;;;;;;;2.65;0.85;;;;;;;;;;5002435;28;20085;-66
2023/01/04 07:58:07;;;;;;;7.35;1.25;;;;;;;;;;5004600;28;20041;-69
2023/01/04 08:00:34;;;;;;;4.70;1.27;;;;;;;;;;5002426;28;20679;-69
2023/01/04 08:03:00;;;;;;;6.35;1.05;;;;;;;;;;5020049;28;20037;-69
2023/01/04 08:05:27;;;;;;;3.38;1.27;;;;;;;;;;5004231;28;20057;-69
2023/01/04 08:07:54;;;;;;;3.47;1.17;;;;;;;;;;5007228;28;20041;-68
2023/01/04 08:10:21;;;;;;;4.53;0.90;;;;;;;;;;5002320;28;20041;-69
2023/01/04 08:12:47;;;;;;;3.90;1.08;;;;;;;;;;5004453;28;20038;-69
2023/01/04 08:15:14;;;;;;;3.17;1.20;;;;;;;;;;5003889;28;20457;-69
2023/01/04 08:17:40;;;;;;;5.43;1.20;;;;;;;;;;5002562;28;20049;-68
2023/01/04 08:20:08;;;;;;;11.68;1.20;;;;;;;;;;5003742;28;20054;-68
2023/01/04 08:22:34;;;;;;;2.65;1.02;;;;;;;;;;5012059;28;20037;-69
2023/01/04 08:25:01;;;;;;;3.20;1.27;;;;;;;;;;5002366;28;20052;-68
2023/01/04 08:27:28;;;;;;;2.45;0.90;;;;;;;;;;5004609;28;20443;-68
2023/01/04 08:29:54;;;;;;;2.80;1.08;;;;;;;;;;5015591;28;20044;-67
2023/01/04 08:32:21;;;;;;;2.95;1.15;;;;;;;;;;5034929;28;20584;-68
2023/01/04 08:34:48;;;;;;;3.40;1.10;;;;;;;;;;5035699;28;20533;-68
2023/01/04 08:37:14;;;;;;;9.45;1.55;;;;;;;;;;5042584;28;20040;-69
2023/01/04 08:39:41;;;;;;;3.55;1.33;;;;;;;;;;5057590;28;20047;-66
2023/01/04 08:42:08;;;;;;;3.40;1.10;;;;;;;;;;5061818;28;20048;-67
2023/01/04 08:44:34;;;;;;;3.45;1.23;;;;;;;;;;4959941;28;2424979;-67
2023/01/04 08:47:01;;;;;;;3.90;1.40;;;;;;;;;;5045387;28;20069;-68
2023/01/04 08:49:28;;;;;;;2.92;1.25;;;;;;;;;;5045676;28;20330;-70
2023/01/04 08:51:54;;;;;;;3.83;1.33;;;;;;;;;;5048110;28;20497;-68
2023/01/04 08:54:21;;;;;;;4.60;1.63;;;;;;;;;;5045625;28;20050;-67
2023/01/04 08:56:48;;;;;;;8.00;1.60;;;;;;;;;;5045046;28;20041;-68
2023/01/04 08:59:15;;;;;;;4.38;1.40;;;;;;;;;;5037005;28;20067;-68
2023/01/04 09:01:41;;;;;;;4.30;1.55;;;;;;;;;;5018984;28;20049;-68
2023/01/04 09:04:08;;;;;;;7.07;1.50;;;;;;;;;;5041622;28;20195;-67
2023/01/04 09:06:36;;;;;;;3.67;1.33;;;;;;;;;;5045856;28;20053;-69
2023/01/04 09:09:03;;;;;;;3.65;1.45;;;;;;;;;;5046897;28;20036;-70
2023/01/04 09:11:29;;;;;;;3.83;1.55;;;;;;;;;;5043935;28;20045;-68
2023/01/04 09:14:00;;;;;;;4.35;1.52;;;;;;;;;;5044126;28;20696;-69
2023/01/04 09:16:27;;;;;;;2.95;1.17;;;;;;;;;;5046308;28;20036;-68
2023/01/04 09:18:55;;;;;;;4.05;1.33;;;;;;;;;;5046113;28;20074;-68
2023/01/04 09:21:22;;;;;;;4.95;1.58;;;;;;;;;;5043153;28;20082;-68
2023/01/04 09:23:49;;;;;;;3.35;1.35;;;;;;;;;;5045468;28;20055;-69
2023/01/04 09:26:23;;;;;;;3.22;1.42;;;;;;;;;;5046494;28;20043;-68
2023/01/04 09:28:51;;;;;;;5.22;1.50;;;;;;;;;;5043670;28;20076;-68
2023/01/04 09:31:19;;;;;;;3.92;1.35;;;;;;;;;;5045487;28;20728;-68
2023/01/04 09:33:45;;;;;;;2.88;1.30;;;;;;;;;;5057021;28;20044;-68
2023/01/04 09:36:14;;;;;;;4.43;1.58;;;;;;;;;;5045307;28;20045;-68
2023/01/04 09:38:40;;;;;;;3.08;1.38;;;;;;;;;;5044417;28;20060;-67
2023/01/04 09:41:14;;;;;;;4.45;1.77;;;;;;;;;;5047355;28;20064;-67
2023/01/04 09:43:50;;;;;;;4.10;1.35;;;;;;;;;;5045309;28;20105;-68
2023/01/04 09:46:23;;;;;;;5.63;1.55;;;;;;;;;;5043320;28;20040;-69
2023/01/04 09:48:52;;;;;;;5.32;1.30;;;;;;;;;;5044290;28;20051;-69
2023/01/04 09:51:20;;;;;;;4.57;1.50;;;;;;;;;;5045058;28;20041;-68
2023/01/04 09:53:51;;;;;;;3.35;1.40;;;;;;;;;;5046018;28;20045;-67
2023/01/04 09:56:28;;;;;;;4.40;1.52;;;;;;;;;;5045074;28;20145;-67
2023/01/04 09:58:55;;;;;;;3.85;1.33;;;;;;;;;;5044144;28;20064;-67
2023/01/04 10:01:24;;;;;;;2.60;1.00;;;;;;;;;;5045394;28;20072;-68
2023/01/04 10:03:53;;;;;;;3.80;1.48;;;;;;;;;;5044760;28;20162;-68
2023/01/04 10:06:20;;;;;;;3.08;1.25;;;;;;;;;;5059837;28;20033;-69
2023/01/04 10:08:46;;;;;;;2.58;1.02;;;;;;;;;;5046272;28;20074;-68
2023/01/04 10:11:16;;;;;;;4.85;1.50;;;;;;;;;;5045380;28;20052;-68
2023/01/04 10:14:01;;;;;;;4.18;1.60;;;;;;;;;;5043724;28;20487;-68
2023/01/04 10:16:36;;;;;;;4.28;1.52;;;;;;;;;;5041210;28;20465;-70
2023/01/04 10:19:29;;;;;;;4.32;1.58;;;;;;;;;;5044765;28;20048;-69
2023/01/04 10:21:57;;;;;;;4.47;1.50;;;;;;;;;;5030508;28;20533;-69
2023/01/04 10:24:47;;;;;;;7.68;1.52;;;;;;;;;;5024146;28;20046;-69
2023/01/04 10:27:14;;;;;;;4.25;1.55;;;;;;;;;;5025124;28;20045;-68
2023/01/04 10:29:46;;;;;;;4.32;1.40;;;;;;;;;;5024373;28;20028;-68
2023/01/04 10:32:26;;;;;;;9.55;1.40;;;;;;;;;;5025856;28;20397;-68
2023/01/04 10:34:53;;;;;;;5.03;1.75;;;;;;;;;;5032203;28;20044;-69
2023/01/04 10:37:22;;;;;;;2.58;0.98;;;;;;;;;;5025152;28;20506;-69
2023/01/04 10:39:54;;;;;;;4.38;1.58;;;;;;;;;;5025315;28;20037;-69
2023/01/04 10:42:40;;;;;;;1.83;0.80;;;;;;;;;;5025448;28;20135;-68
2023/01/04 10:45:10;;;;;;;2.72;1.38;;;;;;;;;;5024707;28;20545;-68
2023/01/04 10:47:36;;;;;;;1.50;0.85;;;;;;;;;;5023904;28;20049;-68
2023/01/04 10:50:23;;;;;;;1.95;0.77;;;;;;;;;;5024666;28;20037;-67
2023/01/04 10:53:28;;;;;;;2.97;0.98;;;;;;;;;;5019450;28;20052;-67
2023/01/04 10:56:01;;;;;;;3.05;1.27;;;;;;;;;;5020438;28;20084;-67
2023/01/04 10:58:59;;;;;;;4.18;1.52;;;;;;;;;;5020967;28;20041;-68
2023/01/04 11:01:33;;;;;;;1.77;1.00;;;;;;;;;;5007923;28;20037;-67
2023/01/04 11:04:09;;;;;;;3.00;1.30;;;;;;;;;;5025560;28;20106;-67
2023/01/04 11:06:40;;;;;;;5.03;1.40;;;;;;;;;;5024255;28;20132;-67
2023/01/04 11:09:23;;;;;;;6.28;1.33;;;;;;;;;;5025486;28;20041;-68
2023/01/04 11:11:50;;;;;;;4.30;1.23;;;;;;;;;;5025564;28;20045;-68
2023/01/04 11:14:16;;;;;;;3.90;1.25;;;;;;;;;;5027089;28;20040;-68
2023/01/04 11:16:48;;;;;;;3.63;1.30;;;;;;;;;;5025556;28;20106;-70
2023/01/04 11:19:15;;;;;;;3.00;1.00;;;;;;;;;;5023274;28;20041;-68
2023/01/04 11:22:02;;;;;;;8.77;1.70;;;;;;;;;;5040742;28;20038;-69
2023/01/04 11:24:32;;;;;;;5.35;1.63;;;;;;;;;;5025383;28;20041;-69
2023/01/04 11:27:03;;;;;;;8.38;1.50;;;;;;;;;;5037250;28;20048;-70
2023/01/04 11:29:56;;;;;;;4.35;1.25;;;;;;;;;;5023783;28;20252;-69
2023/01/04 11:32:41;;;;;;;3.47;1.40;;;;;;;;;;5001400;28;20042;-68
2023/01/04 11:35:08;;;;;;;3.92;1.40;;;;;;;;;;5002552;28;20458;-69
2023/01/04 11:37:36;;;;;;;5.70;1.52;;;;;;;;;;5004841;28;20048;-69
2023/01/04 11:40:17;;;;;;;2.55;0.98;;;;;;;;;;5004924;28;20506;-69
2023/01/04 11:42:48;;;;;;;4.20;1.30;;;;;;;;;;4977240;28;20037;-69
2023/01/04 11:45:27;;;;;;;4.78;1.27;;;;;;;;;;5004640;28;20037;-69
2023/01/04 11:47:55;;;;;;;3.70;1.42;;;;;;;;;;5011187;28;20044;-70
2023/01/04 11:50:39;;;;;;;3.92;1.55;;;;;;;;;;5005243;28;20042;-69
2023/01/04 11:53:23;;;;;;;4.97;1.20;;;;;;;;;;5003415;28;20099;-70
2023/01/04 11:55:51;;;;;;;2.83;1.00;;;;;;;;;;5004991;28;20045;-69
2023/01/04 11:58:18;;;;;;;3.08;1.02;;;;;;;;;;5004086;28;20033;-69
2023/01/04 12:00:52;;;;;;;2.67;1.00;;;;;;;;;;5006888;28;20039;-68
2023/01/04 12:03:39;;;;;;;3.92;1.13;;;;;;;;;;5014450;28;20045;-69
2023/01/04 12:06:17;;;;;;;3.58;1.40;;;;;;;;;;5028485;28;20411;-69
2023/01/04 12:08:44;;;;;;;4.38;1.48;;;;;;;;;;5027994;28;20057;-68
2023/01/04 12:11:16;;;;;;;2.88;1.13;;;;;;;;;;5028242;28;20088;-68
2023/01/04 12:13:44;;;;;;;4.05;1.25;;;;;;;;;;5026858;28;20056;-68
2023/01/04 12:16:11;;;;;;;4.70;1.20;;;;;;;;;;5028736;28;20077;-70
2023/01/04 12:18:39;;;;;;;2.80;1.30;;;;;;;;;;5027759;28;20494;-68
2023/01/04 12:21:06;;;;;;;4.53;1.48;;;;;;;;;;5028809;28;20465;-69
2023/01/04 12:23:33;;;;;;;3.00;1.10;;;;;;;;;;5025648;28;20119;-69
2023/01/04 12:26:00;;;;;;;2.67;1.00;;;;;;;;;;5042522;28;20040;-69
2023/01/04 12:28:29;;;;;;;2.72;0.90;;;;;;;;;;5041953;28;20041;-69
2023/01/04 12:31:16;;;;;;;2.50;0.90;;;;;;;;;;5028252;28;20041;-70
2023/01/04 12:33:42;;;;;;;2.67;1.08;;;;;;;;;;5026968;28;20134;-70
2023/01/04 12:36:11;;;;;;;2.92;1.10;;;;;;;;;;5027420;28;20647;-70
2023/01/04 12:38:52;;;;;;;3.13;0.98;;;;;;;;;;5025276;28;20124;-70
2023/01/04 12:41:20;;;;;;;3.95;1.13;;;;;;;;;;5024861;28;20040;-70
2023/01/04 12:43:48;;;;;;;3.45;1.23;;;;;;;;;;5027583;28;20061;-70
2023/01/04 12:49:27;;;;;;;2.03;0.73;;;;;;;;;;5029321;28;20492;-69
2023/01/04 12:52:12;;;;;;;2.47;0.90;;;;;;;;;;5030532;28;20045;-69
2023/01/04 12:54:51;;;;;;;3.50;1.02;;;;;;;;;;5026245;28;20183;-72
2023/01/04 12:57:18;;;;;;;2.45;0.80;;;;;;;;;;5027717;28;20426;-70
2023/01/04 12:59:58;;;;;;;2.70;0.98;;;;;;;;;;5028557;28;20033;-70
2023/01/04 13:02:29;;;;;;;2.85;0.85;;;;;;;;;;5039235;28;20040;-70
2023/01/04 13:04:56;;;;;;;2.45;0.77;;;;;;;;;;5029809;28;20052;-70
2023/01/04 13:07:28;;;;;;;4.15;1.10;;;;;;;;;;5027556;28;20402;-71
2023/01/04 13:10:18;;;;;;;3.95;1.08;;;;;;;;;;5026784;28;20155;-70
2023/01/04 13:12:54;;;;;;;3.63;0.80;;;;;;;;;;5027766;28;20045;-70
2023/01/04 13:15:41;;;;;;;2.40;0.90;;;;;;;;;;5025153;28;20083;-70
2023/01/04 13:18:19;;;;;;;2.30;0.90;;;;;;;;;;5026098;28;20064;-70
2023/01/04 13:20:46;;;;;;;2.70;0.82;;;;;;;;;;5017659;28;20041;-70
2023/01/04 13:23:13;;;;;;;5.28;1.00;;;;;;;;;;5045773;28;20056;-69
2023/01/04 13:25:40;;;;;;;2.78;0.80;;;;;;;;;;5024680;28;20245;-69
2023/01/04 13:28:06;;;;;;;3.83;0.90;;;;;;;;;;5025188;28;20104;-69
2023/01/04 13:30:37;;;;;;;3.30;1.05;;;;;;;;;;5023339;28;20466;-68
2023/01/04 13:33:13;;;;;;;4.55;1.20;;;;;;;;;;5025750;28;20052;-68
2023/01/04 13:35:40;;;;;;;3.20;1.00;;;;;;;;;;5023771;28;20115;-68
2023/01/04 13:38:14;;;;;;;3.28;0.95;;;;;;;;;;5024581;28;20074;-68
2023/01/04 13:40:47;;;;;;;1.77;0.70;;;;;;;;;;5024104;28;20043;-67
2023/01/04 13:43:31;;;;;;;2.45;0.80;;;;;;;;;;5025615;28;20053;-67
2023/01/04 13:45:58;;;;;;;3.90;1.15;;;;;;;;;;5024227;28;20053;-68
2023/01/04 13:48:26;;;;;;;2.38;0.88;;;;;;;;;;5025043;28;20076;-67
2023/01/04 13:51:00;;;;;;;6.93;1.60;;;;;;;;;;5025376;28;20528;-67
2023/01/04 13:53:28;;;;;;;3.60;1.65;;;;;;;;;;5025073;28;20528;-67
2023/01/04 13:55:59;;;;;;;2.45;0.90;;;;;;;;;;5021462;28;20061;-68
2023/01/04 13:58:27;;;;;;;3.22;1.08;;;;;;;;;;5026022;28;20476;-68
2023/01/04 14:01:02;;;;;;;3.50;0.82;;;;;;;;;;5023855;28;20041;-67
2023/01/04 14:03:31;;;;;;;2.55;0.88;;;;;;;;;;5025710;28;20057;-67
2023/01/04 14:06:11;;;;;;;2.80;0.98;;;;;;;;;;5026264;28;20045;-67
2023/01/04 14:08:38;;;;;;;3.13;1.17;;;;;;;;;;5025573;28;20040;-68
2023/01/04 14:11:14;;;;;;;3.00;0.77;;;;;;;;;;5025751;28;20519;-67
2023/01/04 14:13:45;;;;;;;2.70;0.90;;;;;;;;;;5025015;28;20774;-67
2023/01/04 14:16:13;;;;;;;4.72;1.60;;;;;;;;;;5023003;28;20383;-68
2023/01/04 14:18:40;;;;;;;1.95;0.73;;;;;;;;;;5025214;28;20040;-69
2023/01/04 14:21:17;;;;;;;3.33;1.20;;;;;;;;;;5027080;28;20033;-67
2023/01/04 14:23:44;;;;;;;1.80;0.60;;;;;;;;;;5021025;28;20045;-68
2023/01/04 14:26:30;;;;;;;1.75;0.70;;;;;;;;;;5042133;28;20045;-67
2023/01/04 14:28:56;;;;;;;2.50;0.90;;;;;;;;;;5052714;28;20084;-67
2023/01/04 14:31:27;;;;;;;2.83;0.95;;;;;;;;;;5021669;28;20037;-67
2023/01/04 14:33:54;;;;;;;1.92;0.70;;;;;;;;;;5034509;28;20489;-66
2023/01/04 14:36:25;;;;;;;1.70;0.68;;;;;;;;;;5055665;28;20473;-66
2023/01/04 14:39:05;;;;;;;2.33;0.90;;;;;;;;;;5043589;28;20393;-67
2023/01/04 14:41:33;;;;;;;1.88;0.60;;;;;;;;;;5044713;28;20115;-67
2023/01/04 14:44:00;;;;;;;1.40;0.57;;;;;;;;;;5044922;28;20052;-67
2023/01/04 14:46:28;;;;;;;4.97;0.90;;;;;;;;;;5043438;28;20829;-66
2023/01/04 14:48:55;;;;;;;3.22;0.90;;;;;;;;;;5045931;28;20104;-67
2023/01/04 14:51:23;;;;;;;4.00;0.90;;;;;;;;;;5042149;28;20044;-68
2023/01/04 14:53:50;;;;;;;2.00;0.80;;;;;;;;;;5045625;28;20052;-68
2023/01/04 14:56:17;;;;;;;2.42;0.98;;;;;;;;;;5043233;28;20040;-67
2023/01/04 14:58:45;;;;;;;6.45;0.80;;;;;;;;;;5045219;28;20045;-68
2023/01/04 15:01:12;;;;;;;1.90;0.70;;;;;;;;;;5042375;28;20033;-66
2023/01/04 15:03:39;;;;;;;4.07;1.10;;;;;;;;;;5044452;28;20454;-67
2023/01/04 15:06:06;;;;;;;7.10;0.98;;;;;;;;;;5045425;28;20037;-67
2023/01/04 15:08:33;;;;;;;2.63;0.80;;;;;;;;;;5044564;28;20045;-68
2023/01/04 15:10:59;;;;;;;17.50;1.13;;;;;;;;;;5048527;28;20045;-66
2023/01/04 15:13:26;;;;;;;4.00;1.00;;;;;;;;;;5049167;28;20049;-68
2023/01/04 15:15:53;;;;;;;1.70;0.63;;;;;;;;;;5047404;28;20137;-68
2023/01/04 15:18:19;;;;;;;3.17;0.80;;;;;;;;;;5057159;28;20475;-68
2023/01/04 15:20:46;;;;;;;10.90;1.25;;;;;;;;;;5040761;28;20490;-68
2023/01/04 15:23:13;;;;;;;5.07;1.00;;;;;;;;;;5024329;28;20083;-67
2023/01/04 15:25:40;;;;;;;1.63;0.65;;;;;;;;;;5030459;28;20040;-67
2023/01/04 15:28:08;;;;;;;7.57;0.90;;;;;;;;;;5050481;28;20039;-67
2023/01/04 15:30:34;;;;;;;0.80;0.43;;;;;;;;;;5048288;28;20037;-67
2023/01/04 15:33:01;;;;;;;1.55;0.60;;;;;;;;;;5048357;28;20097;-67
2023/01/04 15:35:27;;;;;;;4.72;1.10;;;;;;;;;;5047501;28;20032;-68
2023/01/04 15:37:54;;;;;;;1.85;0.75;;;;;;;;;;5050340;28;20040;-68
2023/01/04 15:40:21;;;;;;;13.13;1.17;;;;;;;;;;5066188;28;20037;-68
2023/01/04 15:43:00;;;;;;;9.02;0.88;;;;;;;;;;5051402;28;20037;-68
2023/01/04 15:45:28;;;;;;;4.35;1.17;;;;;;;;;;5050738;28;20098;-68
2023/01/04 15:48:01;;;;;;;1.92;0.70;;;;;;;;;;5052578;28;20055;-67